Kerch, Ukraine
Current Conditions -  °F | °C
As of 5:00 PM on Friday 28 Nov 2014 (Local Time) from URKA Reporting Station
Clear Clear  
Wind Chill: 33°   Ceiling: Unl
Heat Index: 39°   Visibility: 6mi
Dew Point: 30°   Wind: 9mph
Humidity: 70%   Direction: 40°NE
Pressure: 30.36"   Gusts: NA
Location:  45.36°N, 36.48°E
Report Text: URKA 281400Z 04004MPS CAVOK 04/M01 Q1028 NOSIG RMK QFE767/1022SC070
Loading
Personal Weather Stations






























Interactive Weather Map New forecast layout! Learn more

10-Day Weather Forecast

Advertisements
Track Severe Weather on mobile